sensor_id;sensor_type;location;lat;lon;timestamp;temperature;humidity
2763;DHT22;1389;51.490;7.338;2023-01-08T00:02:24;11.30;85.20
2763;DHT22;1389;51.490;7.338;2023-01-08T00:04:50;11.30;84.80
2763;DHT22;1389;51.490;7.338;2023-01-08T00:07:16;11.30;84.90
2763;DHT22;1389;51.490;7.338;2023-01-08T00:09:42;11.30;85.20
2763;DHT22;1389;51.490;7.338;2023-01-08T00:12:08;11.30;84.90
2763;DHT22;1389;51.490;7.338;2023-01-08T00:14:35;11.40;85.00
2763;DHT22;1389;51.490;7.338;2023-01-08T00:17:01;11.30;85.10
2763;DHT22;1389;51.490;7.338;2023-01-08T00:19:27;11.30;85.20
2763;DHT22;1389;51.490;7.338;2023-01-08T00:21:54;11.30;85.60
2763;DHT22;1389;51.490;7.338;2023-01-08T00:24:20;11.30;85.60
2763;DHT22;1389;51.490;7.338;2023-01-08T00:26:46;11.30;85.80
2763;DHT22;1389;51.490;7.338;2023-01-08T00:29:12;11.20;86.00
2763;DHT22;1389;51.490;7.338;2023-01-08T00:31:38;11.30;86.20
2763;DHT22;1389;51.490;7.338;2023-01-08T00:34:04;11.30;85.90
2763;DHT22;1389;51.490;7.338;2023-01-08T00:36:30;11.30;86.20
2763;DHT22;1389;51.490;7.338;2023-01-08T00:38:58;11.30;86.00
2763;DHT22;1389;51.490;7.338;2023-01-08T00:41:24;11.30;86.20
2763;DHT22;1389;51.490;7.338;2023-01-08T00:43:50;11.30;86.40
2763;DHT22;1389;51.490;7.338;2023-01-08T00:46:16;11.30;86.50
2763;DHT22;1389;51.490;7.338;2023-01-08T00:48:42;11.20;86.60
2763;DHT22;1389;51.490;7.338;2023-01-08T00:51:08;11.30;86.30
2763;DHT22;1389;51.490;7.338;2023-01-08T00:53:35;11.20;86.50
2763;DHT22;1389;51.490;7.338;2023-01-08T00:56:05;11.20;86.60
2763;DHT22;1389;51.490;7.338;2023-01-08T00:58:31;11.20;86.70
2763;DHT22;1389;51.490;7.338;2023-01-08T01:00:58;11.20;86.80
2763;DHT22;1389;51.490;7.338;2023-01-08T01:03:24;11.10;86.90
2763;DHT22;1389;51.490;7.338;2023-01-08T01:05:59;11.20;87.10
2763;DHT22;1389;51.490;7.338;2023-01-08T01:08:25;11.20;87.10
2763;DHT22;1389;51.490;7.338;2023-01-08T01:10:51;11.20;87.20
2763;DHT22;1389;51.490;7.338;2023-01-08T01:13:17;11.20;87.40
2763;DHT22;1389;51.490;7.338;2023-01-08T01:15:43;11.20;86.90
2763;DHT22;1389;51.490;7.338;2023-01-08T01:18:10;11.20;87.00
2763;DHT22;1389;51.490;7.338;2023-01-08T01:20:36;11.20;87.20
2763;DHT22;1389;51.490;7.338;2023-01-08T01:23:03;11.20;87.70
2763;DHT22;1389;51.490;7.338;2023-01-08T01:25:29;11.20;87.60
2763;DHT22;1389;51.490;7.338;2023-01-08T01:27:55;11.20;87.40
2763;DHT22;1389;51.490;7.338;2023-01-08T01:30:21;11.20;87.20
2763;DHT22;1389;51.490;7.338;2023-01-08T01:32:47;11.20;87.10
2763;DHT22;1389;51.490;7.338;2023-01-08T01:35:13;11.20;86.80
2763;DHT22;1389;51.490;7.338;2023-01-08T01:37:39;11.20;86.90
2763;DHT22;1389;51.490;7.338;2023-01-08T01:40:06;11.20;86.90
2763;DHT22;1389;51.490;7.338;2023-01-08T01:42:32;11.20;87.50
2763;DHT22;1389;51.490;7.338;2023-01-08T01:45:22;11.20;87.20
2763;DHT22;1389;51.490;7.338;2023-01-08T01:48:10;11.20;87.40
2763;DHT22;1389;51.490;7.338;2023-01-08T01:50:43;11.20;88.20
2763;DHT22;1389;51.490;7.338;2023-01-08T01:53:26;11.20;88.10
2763;DHT22;1389;51.490;7.338;2023-01-08T01:55:54;11.20;87.60
2763;DHT22;1389;51.490;7.338;2023-01-08T01:58:27;11.20;87.10
2763;DHT22;1389;51.490;7.338;2023-01-08T02:00:55;11.20;87.40
2763;DHT22;1389;51.490;7.338;2023-01-08T02:03:29;11.20;87.20
2763;DHT22;1389;51.490;7.338;2023-01-08T02:06:02;11.10;87.40
2763;DHT22;1389;51.490;7.338;2023-01-08T02:11:10;11.20;87.70
2763;DHT22;1389;51.490;7.338;2023-01-08T02:13:39;11.10;87.40
2763;DHT22;1389;51.490;7.338;2023-01-08T02:16:16;11.20;87.50
2763;DHT22;1389;51.490;7.338;2023-01-08T02:18:49;11.20;87.10
2763;DHT22;1389;51.490;7.338;2023-01-08T02:21:42;11.20;87.40
2763;DHT22;1389;51.490;7.338;2023-01-08T02:25:04;11.20;87.40
2763;DHT22;1389;51.490;7.338;2023-01-08T02:27:28;11.20;87.60
2763;DHT22;1389;51.490;7.338;2023-01-08T02:29:56;11.20;87.70
2763;DHT22;1389;51.490;7.338;2023-01-08T02:32:26;11.20;87.80
2763;DHT22;1389;51.490;7.338;2023-01-08T02:34:53;11.20;87.90
2763;DHT22;1389;51.490;7.338;2023-01-08T02:37:20;11.20;88.20
2763;DHT22;1389;51.490;7.338;2023-01-08T02:42:34;11.10;88.90
2763;DHT22;1389;51.490;7.338;2023-01-08T02:47:44;11.10;89.50
2763;DHT22;1389;51.490;7.338;2023-01-08T02:53:12;11.00;90.00
2763;DHT22;1389;51.490;7.338;2023-01-08T02:55:41;11.00;89.80
2763;DHT22;1389;51.490;7.338;2023-01-08T02:58:09;11.00;89.90
2763;DHT22;1389;51.490;7.338;2023-01-08T03:00:38;11.00;89.90
2763;DHT22;1389;51.490;7.338;2023-01-08T03:03:13;11.00;90.10
2763;DHT22;1389;51.490;7.338;2023-01-08T03:05:44;11.00;90.10
2763;DHT22;1389;51.490;7.338;2023-01-08T03:10:41;10.90;90.10
2763;DHT22;1389;51.490;7.338;2023-01-08T03:13:13;10.90;90.40
2763;DHT22;1389;51.490;7.338;2023-01-08T03:15:46;10.90;90.50
2763;DHT22;1389;51.490;7.338;2023-01-08T03:18:18;10.90;90.40
2763;DHT22;1389;51.490;7.338;2023-01-08T03:20:46;10.90;90.10
2763;DHT22;1389;51.490;7.338;2023-01-08T03:23:14;10.90;89.80
2763;DHT22;1389;51.490;7.338;2023-01-08T03:25:43;10.90;89.80
2763;DHT22;1389;51.490;7.338;2023-01-08T03:28:38;10.90;89.70
2763;DHT22;1389;51.490;7.338;2023-01-08T03:31:07;10.90;90.00
2763;DHT22;1389;51.490;7.338;2023-01-08T03:33:34;10.90;90.20
2763;DHT22;1389;51.490;7.338;2023-01-08T03:36:02;10.90;90.00
2763;DHT22;1389;51.490;7.338;2023-01-08T03:38:35;10.80;90.40
2763;DHT22;1389;51.490;7.338;2023-01-08T03:41:07;10.90;90.40
2763;DHT22;1389;51.490;7.338;2023-01-08T03:43:34;10.90;90.40
2763;DHT22;1389;51.490;7.338;2023-01-08T03:46:03;10.90;90.50
2763;DHT22;1389;51.490;7.338;2023-01-08T03:48:33;10.80;90.20
2763;DHT22;1389;51.490;7.338;2023-01-08T03:51:00;10.80;90.20
2763;DHT22;1389;51.490;7.338;2023-01-08T03:53:27;10.80;90.20
2763;DHT22;1389;51.490;7.338;2023-01-08T03:55:53;10.80;90.20
2763;DHT22;1389;51.490;7.338;2023-01-08T03:58:19;10.80;90.40
2763;DHT22;1389;51.490;7.338;2023-01-08T04:00:45;10.80;90.40
2763;DHT22;1389;51.490;7.338;2023-01-08T04:03:11;10.80;90.20
2763;DHT22;1389;51.490;7.338;2023-01-08T04:05:37;10.80;90.40
2763;DHT22;1389;51.490;7.338;2023-01-08T04:08:03;10.70;90.60
2763;DHT22;1389;51.490;7.338;2023-01-08T04:10:30;10.70;90.50
2763;DHT22;1389;51.490;7.338;2023-01-08T04:12:56;10.80;90.50
2763;DHT22;1389;51.490;7.338;2023-01-08T04:15:22;10.80;90.50
2763;DHT22;1389;51.490;7.338;2023-01-08T04:17:48;10.80;90.70
2763;DHT22;1389;51.490;7.338;2023-01-08T04:20:14;10.80;90.80
2763;DHT22;1389;51.490;7.338;2023-01-08T04:22:40;10.80;90.90
2763;DHT22;1389;51.490;7.338;2023-01-08T04:25:06;10.80;90.80
2763;DHT22;1389;51.490;7.338;2023-01-08T04:27:32;10.80;90.90
2763;DHT22;1389;51.490;7.338;2023-01-08T04:29:58;10.90;90.70
2763;DHT22;1389;51.490;7.338;2023-01-08T04:32:24;10.90;90.60
2763;DHT22;1389;51.490;7.338;2023-01-08T04:34:50;10.90;90.40
2763;DHT22;1389;51.490;7.338;2023-01-08T04:37:16;10.90;90.60
2763;DHT22;1389;51.490;7.338;2023-01-08T04:39:42;10.90;90.40
2763;DHT22;1389;51.490;7.338;2023-01-08T04:42:08;10.80;90.30
2763;DHT22;1389;51.490;7.338;2023-01-08T04:44:34;10.80;90.30
2763;DHT22;1389;51.490;7.338;2023-01-08T04:47:00;10.90;90.50
2763;DHT22;1389;51.490;7.338;2023-01-08T04:49:27;10.90;90.70
2763;DHT22;1389;51.490;7.338;2023-01-08T04:51:53;10.90;90.90
2763;DHT22;1389;51.490;7.338;2023-01-08T04:54:19;10.90;90.90
2763;DHT22;1389;51.490;7.338;2023-01-08T04:56:45;10.90;90.60
2763;DHT22;1389;51.490;7.338;2023-01-08T04:59:11;10.90;90.80
2763;DHT22;1389;51.490;7.338;2023-01-08T05:01:37;10.90;90.80
2763;DHT22;1389;51.490;7.338;2023-01-08T05:04:03;10.90;91.00
2763;DHT22;1389;51.490;7.338;2023-01-08T05:06:30;10.90;91.10
2763;DHT22;1389;51.490;7.338;2023-01-08T05:08:57;10.90;90.70
2763;DHT22;1389;51.490;7.338;2023-01-08T05:11:24;10.90;91.00
2763;DHT22;1389;51.490;7.338;2023-01-08T05:13:51;10.80;91.00
2763;DHT22;1389;51.490;7.338;2023-01-08T05:16:17;10.80;91.10
2763;DHT22;1389;51.490;7.338;2023-01-08T05:18:44;10.80;91.20
2763;DHT22;1389;51.490;7.338;2023-01-08T05:21:10;10.80;91.10
2763;DHT22;1389;51.490;7.338;2023-01-08T05:23:36;10.80;91.10
2763;DHT22;1389;51.490;7.338;2023-01-08T05:26:03;10.70;91.10
2763;DHT22;1389;51.490;7.338;2023-01-08T05:28:30;10.70;91.10
2763;DHT22;1389;51.490;7.338;2023-01-08T05:30:56;10.70;91.00
2763;DHT22;1389;51.490;7.338;2023-01-08T05:33:23;10.70;91.20
2763;DHT22;1389;51.490;7.338;2023-01-08T05:35:50;10.70;91.30
2763;DHT22;1389;51.490;7.338;2023-01-08T05:38:16;10.70;91.50
2763;DHT22;1389;51.490;7.338;2023-01-08T05:40:42;10.80;91.50
2763;DHT22;1389;51.490;7.338;2023-01-08T05:43:08;10.80;91.40
2763;DHT22;1389;51.490;7.338;2023-01-08T05:45:34;10.80;91.40
2763;DHT22;1389;51.490;7.338;2023-01-08T05:48:04;10.80;91.20
2763;DHT22;1389;51.490;7.338;2023-01-08T05:50:30;10.80;91.20
2763;DHT22;1389;51.490;7.338;2023-01-08T05:52:56;10.80;91.10
2763;DHT22;1389;51.490;7.338;2023-01-08T05:55:22;10.80;91.10
2763;DHT22;1389;51.490;7.338;2023-01-08T05:57:48;10.70;91.20
2763;DHT22;1389;51.490;7.338;2023-01-08T06:00:15;10.80;91.50
2763;DHT22;1389;51.490;7.338;2023-01-08T06:02:45;10.80;91.40
2763;DHT22;1389;51.490;7.338;2023-01-08T06:05:12;10.80;91.30
2763;DHT22;1389;51.490;7.338;2023-01-08T06:07:38;10.90;91.10
2763;DHT22;1389;51.490;7.338;2023-01-08T06:10:05;10.80;90.90
2763;DHT22;1389;51.490;7.338;2023-01-08T06:12:31;10.80;90.80
2763;DHT22;1389;51.490;7.338;2023-01-08T06:14:57;10.80;90.90
2763;DHT22;1389;51.490;7.338;2023-01-08T06:17:23;10.80;90.90
2763;DHT22;1389;51.490;7.338;2023-01-08T06:19:49;10.80;90.80
2763;DHT22;1389;51.490;7.338;2023-01-08T06:22:15;10.80;91.00
2763;DHT22;1389;51.490;7.338;2023-01-08T06:24:41;10.80;90.80
2763;DHT22;1389;51.490;7.338;2023-01-08T06:27:07;10.80;90.90
2763;DHT22;1389;51.490;7.338;2023-01-08T06:29:33;10.80;91.10
2763;DHT22;1389;51.490;7.338;2023-01-08T06:31:59;10.80;91.20
2763;DHT22;1389;51.490;7.338;2023-01-08T06:34:25;10.80;90.80
2763;DHT22;1389;51.490;7.338;2023-01-08T06:36:51;10.80;90.70
2763;DHT22;1389;51.490;7.338;2023-01-08T06:39:17;10.80;90.70
2763;DHT22;1389;51.490;7.338;2023-01-08T06:41:43;10.80;90.60
2763;DHT22;1389;51.490;7.338;2023-01-08T06:44:09;10.80;90.70
2763;DHT22;1389;51.490;7.338;2023-01-08T06:46:35;10.80;90.80
2763;DHT22;1389;51.490;7.338;2023-01-08T06:49:05;10.80;90.90
2763;DHT22;1389;51.490;7.338;2023-01-08T06:51:32;10.80;90.90
2763;DHT22;1389;51.490;7.338;2023-01-08T06:53:58;10.70;91.00
2763;DHT22;1389;51.490;7.338;2023-01-08T06:56:24;10.70;91.00
2763;DHT22;1389;51.490;7.338;2023-01-08T06:58:50;10.70;90.80
2763;DHT22;1389;51.490;7.338;2023-01-08T07:01:16;10.70;90.80
2763;DHT22;1389;51.490;7.338;2023-01-08T07:03:42;10.70;90.80
2763;DHT22;1389;51.490;7.338;2023-01-08T07:06:14;10.70;90.80
2763;DHT22;1389;51.490;7.338;2023-01-08T07:08:42;10.70;90.90
2763;DHT22;1389;51.490;7.338;2023-01-08T07:11:08;10.70;90.60
2763;DHT22;1389;51.490;7.338;2023-01-08T07:13:36;10.70;90.90
2763;DHT22;1389;51.490;7.338;2023-01-08T07:16:11;10.70;90.50
2763;DHT22;1389;51.490;7.338;2023-01-08T07:18:37;10.70;90.50
2763;DHT22;1389;51.490;7.338;2023-01-08T07:21:05;10.70;90.50
2763;DHT22;1389;51.490;7.338;2023-01-08T07:23:32;10.70;90.30
2763;DHT22;1389;51.490;7.338;2023-01-08T07:25:59;10.70;90.50
2763;DHT22;1389;51.490;7.338;2023-01-08T07:28:27;10.70;90.40
2763;DHT22;1389;51.490;7.338;2023-01-08T07:30:53;10.70;90.70
2763;DHT22;1389;51.490;7.338;2023-01-08T07:33:19;10.70;91.00
2763;DHT22;1389;51.490;7.338;2023-01-08T07:35:52;10.60;90.30
2763;DHT22;1389;51.490;7.338;2023-01-08T07:38:18;10.40;89.60
2763;DHT22;1389;51.490;7.338;2023-01-08T07:40:44;10.40;89.80
2763;DHT22;1389;51.490;7.338;2023-01-08T07:43:10;10.30;90.20
2763;DHT22;1389;51.490;7.338;2023-01-08T07:45:39;10.20;90.30
2763;DHT22;1389;51.490;7.338;2023-01-08T07:48:06;10.10;90.40
2763;DHT22;1389;51.490;7.338;2023-01-08T07:50:32;10.10;90.80
2763;DHT22;1389;51.490;7.338;2023-01-08T07:55:26;10.10;91.50
2763;DHT22;1389;51.490;7.338;2023-01-08T07:57:53;10.20;91.50
2763;DHT22;1389;51.490;7.338;2023-01-08T08:00:19;10.20;91.50
2763;DHT22;1389;51.490;7.338;2023-01-08T08:02:45;10.20;90.60
2763;DHT22;1389;51.490;7.338;2023-01-08T08:05:11;10.10;90.60
2763;DHT22;1389;51.490;7.338;2023-01-08T08:07:37;10.10;90.60
2763;DHT22;1389;51.490;7.338;2023-01-08T08:10:04;10.20;90.60
2763;DHT22;1389;51.490;7.338;2023-01-08T08:12:30;10.20;90.40
2763;DHT22;1389;51.490;7.338;2023-01-08T08:14:56;10.10;89.40
2763;DHT22;1389;51.490;7.338;2023-01-08T08:17:22;10.10;89.60
2763;DHT22;1389;51.490;7.338;2023-01-08T08:19:48;10.10;89.20
2763;DHT22;1389;51.490;7.338;2023-01-08T08:22:14;10.10;89.50
2763;DHT22;1389;51.490;7.338;2023-01-08T08:24:40;10.10;89.20
2763;DHT22;1389;51.490;7.338;2023-01-08T08:27:06;10.00;89.30
2763;DHT22;1389;51.490;7.338;2023-01-08T08:29:32;10.00;89.60
2763;DHT22;1389;51.490;7.338;2023-01-08T08:31:58;10.00;89.70
2763;DHT22;1389;51.490;7.338;2023-01-08T08:34:24;10.00;89.70
2763;DHT22;1389;51.490;7.338;2023-01-08T08:36:50;10.00;89.60
2763;DHT22;1389;51.490;7.338;2023-01-08T08:39:16;10.00;88.90
2763;DHT22;1389;51.490;7.338;2023-01-08T08:41:42;10.00;89.10
2763;DHT22;1389;51.490;7.338;2023-01-08T08:44:08;10.00;88.50
2763;DHT22;1389;51.490;7.338;2023-01-08T08:46:35;10.00;88.90
2763;DHT22;1389;51.490;7.338;2023-01-08T08:49:01;10.00;89.00
2763;DHT22;1389;51.490;7.338;2023-01-08T08:51:27;10.00;88.70
2763;DHT22;1389;51.490;7.338;2023-01-08T08:53:53;10.00;88.70
2763;DHT22;1389;51.490;7.338;2023-01-08T08:56:19;10.00;88.70
2763;DHT22;1389;51.490;7.338;2023-01-08T08:58:45;10.00;88.60
2763;DHT22;1389;51.490;7.338;2023-01-08T09:01:11;9.90;88.10
2763;DHT22;1389;51.490;7.338;2023-01-08T09:03:37;9.90;87.90
2763;DHT22;1389;51.490;7.338;2023-01-08T09:06:04;9.90;86.10
2763;DHT22;1389;51.490;7.338;2023-01-08T09:08:30;10.00;86.60
2763;DHT22;1389;51.490;7.338;2023-01-08T09:10:56;9.90;86.30
2763;DHT22;1389;51.490;7.338;2023-01-08T09:13:22;10.00;85.30
2763;DHT22;1389;51.490;7.338;2023-01-08T09:15:48;9.90;85.40
2763;DHT22;1389;51.490;7.338;2023-01-08T09:18:14;9.90;85.90
2763;DHT22;1389;51.490;7.338;2023-01-08T09:20:40;9.90;86.30
2763;DHT22;1389;51.490;7.338;2023-01-08T09:23:06;9.90;86.50
2763;DHT22;1389;51.490;7.338;2023-01-08T09:25:32;9.90;86.30
2763;DHT22;1389;51.490;7.338;2023-01-08T09:28:00;9.90;86.20
2763;DHT22;1389;51.490;7.338;2023-01-08T09:30:26;9.90;86.60
2763;DHT22;1389;51.490;7.338;2023-01-08T09:32:56;9.90;86.60
2763;DHT22;1389;51.490;7.338;2023-01-08T09:35:22;9.90;86.10
2763;DHT22;1389;51.490;7.338;2023-01-08T09:37:54;9.90;86.40
2763;DHT22;1389;51.490;7.338;2023-01-08T09:40:57;10.00;86.60
2763;DHT22;1389;51.490;7.338;2023-01-08T09:43:26;10.00;86.60
2763;DHT22;1389;51.490;7.338;2023-01-08T09:45:56;10.00;86.50
2763;DHT22;1389;51.490;7.338;2023-01-08T09:48:25;10.00;86.50
2763;DHT22;1389;51.490;7.338;2023-01-08T09:50:52;10.00;86.10
2763;DHT22;1389;51.490;7.338;2023-01-08T09:53:19;10.00;86.00
2763;DHT22;1389;51.490;7.338;2023-01-08T09:55:54;10.00;86.20
2763;DHT22;1389;51.490;7.338;2023-01-08T10:01:45;10.20;85.40
2763;DHT22;1389;51.490;7.338;2023-01-08T10:04:15;10.20;85.10
2763;DHT22;1389;51.490;7.338;2023-01-08T10:07:08;10.30;85.40
2763;DHT22;1389;51.490;7.338;2023-01-08T10:09:36;10.40;85.50
2763;DHT22;1389;51.490;7.338;2023-01-08T10:12:03;10.50;85.80
2763;DHT22;1389;51.490;7.338;2023-01-08T10:14:38;10.60;85.30
2763;DHT22;1389;51.490;7.338;2023-01-08T10:19:47;10.70;85.20
2763;DHT22;1389;51.490;7.338;2023-01-08T10:22:19;10.70;85.00
2763;DHT22;1389;51.490;7.338;2023-01-08T10:24:45;10.80;84.70
2763;DHT22;1389;51.490;7.338;2023-01-08T10:27:22;10.70;84.70
2763;DHT22;1389;51.490;7.338;2023-01-08T10:29:51;10.70;85.10
2763;DHT22;1389;51.490;7.338;2023-01-08T10:32:29;10.60;85.10
2763;DHT22;1389;51.490;7.338;2023-01-08T10:35:03;10.70;85.40
2763;DHT22;1389;51.490;7.338;2023-01-08T10:40:13;10.80;85.70
2763;DHT22;1389;51.490;7.338;2023-01-08T10:42:42;10.90;85.30
2763;DHT22;1389;51.490;7.338;2023-01-08T10:45:22;10.90;85.00
2763;DHT22;1389;51.490;7.338;2023-01-08T10:47:51;10.90;84.70
2763;DHT22;1389;51.490;7.338;2023-01-08T10:50:26;10.90;85.10
2763;DHT22;1389;51.490;7.338;2023-01-08T10:52:54;10.90;85.20
2763;DHT22;1389;51.490;7.338;2023-01-08T10:57:59;11.00;84.40
2763;DHT22;1389;51.490;7.338;2023-01-08T11:00:29;10.90;84.40
2763;DHT22;1389;51.490;7.338;2023-01-08T11:03:06;10.90;84.60
2763;DHT22;1389;51.490;7.338;2023-01-08T11:05:38;10.90;84.80
2763;DHT22;1389;51.490;7.338;2023-01-08T11:08:07;10.90;84.80
2763;DHT22;1389;51.490;7.338;2023-01-08T11:10:37;10.90;84.80
2763;DHT22;1389;51.490;7.338;2023-01-08T11:13:05;10.90;84.90
2763;DHT22;1389;51.490;7.338;2023-01-08T11:15:37;11.00;85.00
2763;DHT22;1389;51.490;7.338;2023-01-08T11:18:22;10.90;84.70
2763;DHT22;1389;51.490;7.338;2023-01-08T11:20:49;11.00;85.20
2763;DHT22;1389;51.490;7.338;2023-01-08T11:23:24;11.10;85.50
2763;DHT22;1389;51.490;7.338;2023-01-08T11:26:05;11.10;85.20
2763;DHT22;1389;51.490;7.338;2023-01-08T11:31:24;11.30;84.80
2763;DHT22;1389;51.490;7.338;2023-01-08T11:34:00;11.40;84.80
2763;DHT22;1389;51.490;7.338;2023-01-08T11:36:43;11.40;84.20
2763;DHT22;1389;51.490;7.338;2023-01-08T11:39:09;11.40;84.20
2763;DHT22;1389;51.490;7.338;2023-01-08T11:44:46;11.50;84.40
2763;DHT22;1389;51.490;7.338;2023-01-08T11:55:48;11.70;84.80
2763;DHT22;1389;51.490;7.338;2023-01-08T12:03:50;11.80;84.50
2763;DHT22;1389;51.490;7.338;2023-01-08T12:06:52;11.80;84.20
2763;DHT22;1389;51.490;7.338;2023-01-08T12:09:43;11.80;83.80
2763;DHT22;1389;51.490;7.338;2023-01-08T12:14:51;11.80;83.70
2763;DHT22;1389;51.490;7.338;2023-01-08T12:17:32;11.80;83.10
2763;DHT22;1389;51.490;7.338;2023-01-08T12:20:20;11.80;83.60
2763;DHT22;1389;51.490;7.338;2023-01-08T12:22:59;11.80;83.10
2763;DHT22;1389;51.490;7.338;2023-01-08T12:25:59;11.80;83.00
2763;DHT22;1389;51.490;7.338;2023-01-08T12:28:36;11.90;82.60
2763;DHT22;1389;51.490;7.338;2023-01-08T12:33:56;11.70;83.20
2763;DHT22;1389;51.490;7.338;2023-01-08T12:36:35;11.80;83.10
2763;DHT22;1389;51.490;7.338;2023-01-08T12:39:11;11.80;83.90
2763;DHT22;1389;51.490;7.338;2023-01-08T12:41:38;11.80;83.00
2763;DHT22;1389;51.490;7.338;2023-01-08T12:44:08;11.90;83.70
2763;DHT22;1389;51.490;7.338;2023-01-08T12:46:45;11.90;83.50
2763;DHT22;1389;51.490;7.338;2023-01-08T12:49:20;12.00;82.30
2763;DHT22;1389;51.490;7.338;2023-01-08T12:52:07;12.00;82.20
2763;DHT22;1389;51.490;7.338;2023-01-08T12:54:52;12.00;82.50
2763;DHT22;1389;51.490;7.338;2023-01-08T12:57:38;11.90;82.50
2763;DHT22;1389;51.490;7.338;2023-01-08T13:00:48;12.00;82.90
2763;DHT22;1389;51.490;7.338;2023-01-08T13:03:13;12.00;82.70
2763;DHT22;1389;51.490;7.338;2023-01-08T13:05:42;12.00;82.40
2763;DHT22;1389;51.490;7.338;2023-01-08T13:08:32;11.90;83.40
2763;DHT22;1389;51.490;7.338;2023-01-08T13:10:59;11.60;85.20
2763;DHT22;1389;51.490;7.338;2023-01-08T13:13:30;11.10;86.70
2763;DHT22;1389;51.490;7.338;2023-01-08T13:16:06;10.60;87.80
2763;DHT22;1389;51.490;7.338;2023-01-08T13:18:32;10.20;89.80
2763;DHT22;1389;51.490;7.338;2023-01-08T13:21:00;10.00;90.60
2763;DHT22;1389;51.490;7.338;2023-01-08T13:23:28;9.90;91.70
2763;DHT22;1389;51.490;7.338;2023-01-08T13:25:57;9.80;91.60
2763;DHT22;1389;51.490;7.338;2023-01-08T13:30:50;9.60;92.70
2763;DHT22;1389;51.490;7.338;2023-01-08T13:33:35;9.60;93.40
2763;DHT22;1389;51.490;7.338;2023-01-08T13:41:36;9.60;94.10
2763;DHT22;1389;51.490;7.338;2023-01-08T13:44:14;9.50;94.00
2763;DHT22;1389;51.490;7.338;2023-01-08T13:46:41;9.60;94.00
2763;DHT22;1389;51.490;7.338;2023-01-08T13:50:03;9.60;93.80
2763;DHT22;1389;51.490;7.338;2023-01-08T13:52:04;9.60;93.70
2763;DHT22;1389;51.490;7.338;2023-01-08T13:54:35;9.60;93.10
2763;DHT22;1389;51.490;7.338;2023-01-08T13:57:12;9.60;92.90
2763;DHT22;1389;51.490;7.338;2023-01-08T13:59:47;9.60;92.00
2763;DHT22;1389;51.490;7.338;2023-01-08T14:02:43;9.70;91.50
2763;DHT22;1389;51.490;7.338;2023-01-08T14:07:54;9.70;91.70
2763;DHT22;1389;51.490;7.338;2023-01-08T14:10:21;9.80;91.80
2763;DHT22;1389;51.490;7.338;2023-01-08T14:12:48;9.80;92.00
2763;DHT22;1389;51.490;7.338;2023-01-08T14:15:27;9.80;92.10
2763;DHT22;1389;51.490;7.338;2023-01-08T14:17:55;9.80;91.80
2763;DHT22;1389;51.490;7.338;2023-01-08T14:20:34;9.70;92.00
2763;DHT22;1389;51.490;7.338;2023-01-08T14:23:02;9.70;92.50
2763;DHT22;1389;51.490;7.338;2023-01-08T14:25:33;9.70;92.60
2763;DHT22;1389;51.490;7.338;2023-01-08T14:28:04;9.70;91.70
2763;DHT22;1389;51.490;7.338;2023-01-08T14:30:31;9.80;91.60
2763;DHT22;1389;51.490;7.338;2023-01-08T14:32:58;9.80;91.60
2763;DHT22;1389;51.490;7.338;2023-01-08T14:35:33;9.80;92.00
2763;DHT22;1389;51.490;7.338;2023-01-08T14:38:01;9.80;92.00
2763;DHT22;1389;51.490;7.338;2023-01-08T14:40:35;9.80;92.20
2763;DHT22;1389;51.490;7.338;2023-01-08T14:43:08;9.80;92.00
2763;DHT22;1389;51.490;7.338;2023-01-08T14:45:36;9.80;92.00
2763;DHT22;1389;51.490;7.338;2023-01-08T14:48:35;9.80;92.30
2763;DHT22;1389;51.490;7.338;2023-01-08T14:51:10;9.80;92.30
2763;DHT22;1389;51.490;7.338;2023-01-08T14:53:47;9.80;92.50
2763;DHT22;1389;51.490;7.338;2023-01-08T14:56:17;9.70;92.70
2763;DHT22;1389;51.490;7.338;2023-01-08T14:58:45;9.70;92.70
2763;DHT22;1389;51.490;7.338;2023-01-08T15:01:17;9.70;92.60
2763;DHT22;1389;51.490;7.338;2023-01-08T15:03:45;9.60;92.30
2763;DHT22;1389;51.490;7.338;2023-01-08T15:06:25;9.70;92.70
2763;DHT22;1389;51.490;7.338;2023-01-08T15:08:52;9.60;93.10
2763;DHT22;1389;51.490;7.338;2023-01-08T15:13:48;9.60;93.20
2763;DHT22;1389;51.490;7.338;2023-01-08T15:19:02;9.70;93.40
2763;DHT22;1389;51.490;7.338;2023-01-08T15:21:29;9.60;93.20
2763;DHT22;1389;51.490;7.338;2023-01-08T15:23:56;9.60;93.10
2763;DHT22;1389;51.490;7.338;2023-01-08T15:26:23;9.60;93.10
2763;DHT22;1389;51.490;7.338;2023-01-08T15:28:58;9.60;93.10
2763;DHT22;1389;51.490;7.338;2023-01-08T15:31:30;9.50;93.10
2763;DHT22;1389;51.490;7.338;2023-01-08T15:33:58;9.50;93.10
2763;DHT22;1389;51.490;7.338;2023-01-08T15:36:24;9.40;93.40
2763;DHT22;1389;51.490;7.338;2023-01-08T15:38:51;9.40;93.60
2763;DHT22;1389;51.490;7.338;2023-01-08T15:41:22;9.40;93.40
2763;DHT22;1389;51.490;7.338;2023-01-08T15:44:08;9.40;93.20
2763;DHT22;1389;51.490;7.338;2023-01-08T15:46:34;9.50;93.00
2763;DHT22;1389;51.490;7.338;2023-01-08T15:49:01;9.50;92.90
2763;DHT22;1389;51.490;7.338;2023-01-08T15:51:30;9.60;92.90
2763;DHT22;1389;51.490;7.338;2023-01-08T15:53:57;9.60;92.70
2763;DHT22;1389;51.490;7.338;2023-01-08T15:56:23;9.70;91.00
2763;DHT22;1389;51.490;7.338;2023-01-08T15:58:49;9.70;91.00
2763;DHT22;1389;51.490;7.338;2023-01-08T16:01:15;9.70;91.20
2763;DHT22;1389;51.490;7.338;2023-01-08T16:03:41;9.70;91.10
2763;DHT22;1389;51.490;7.338;2023-01-08T16:06:08;9.70;91.30
2763;DHT22;1389;51.490;7.338;2023-01-08T16:08:34;9.70;91.40
2763;DHT22;1389;51.490;7.338;2023-01-08T16:11:00;9.70;91.30
2763;DHT22;1389;51.490;7.338;2023-01-08T16:13:26;9.70;91.20
2763;DHT22;1389;51.490;7.338;2023-01-08T16:15:52;9.70;91.10
2763;DHT22;1389;51.490;7.338;2023-01-08T16:18:20;9.70;91.20
2763;DHT22;1389;51.490;7.338;2023-01-08T16:20:46;9.70;91.20
2763;DHT22;1389;51.490;7.338;2023-01-08T16:23:12;9.80;91.20
2763;DHT22;1389;51.490;7.338;2023-01-08T16:25:38;9.80;91.20
2763;DHT22;1389;51.490;7.338;2023-01-08T16:30:31;9.80;91.00
2763;DHT22;1389;51.490;7.338;2023-01-08T16:32:57;9.80;89.80
2763;DHT22;1389;51.490;7.338;2023-01-08T16:35:23;9.80;89.80
2763;DHT22;1389;51.490;7.338;2023-01-08T16:37:49;9.80;89.70
2763;DHT22;1389;51.490;7.338;2023-01-08T16:40:15;9.80;89.80
2763;DHT22;1389;51.490;7.338;2023-01-08T16:42:41;9.90;89.40
2763;DHT22;1389;51.490;7.338;2023-01-08T16:45:07;9.90;89.50
2763;DHT22;1389;51.490;7.338;2023-01-08T16:47:37;9.90;89.50
2763;DHT22;1389;51.490;7.338;2023-01-08T16:50:04;10.00;88.70
2763;DHT22;1389;51.490;7.338;2023-01-08T16:52:30;10.00;88.70
2763;DHT22;1389;51.490;7.338;2023-01-08T16:54:56;10.00;88.60
2763;DHT22;1389;51.490;7.338;2023-01-08T16:57:22;10.00;89.20
2763;DHT22;1389;51.490;7.338;2023-01-08T16:59:48;10.00;89.20
2763;DHT22;1389;51.490;7.338;2023-01-08T17:02:15;10.00;89.20
2763;DHT22;1389;51.490;7.338;2023-01-08T17:04:41;10.00;88.30
2763;DHT22;1389;51.490;7.338;2023-01-08T17:07:07;10.00;88.10
2763;DHT22;1389;51.490;7.338;2023-01-08T17:09:33;9.90;87.60
2763;DHT22;1389;51.490;7.338;2023-01-08T17:12:00;9.90;87.90
2763;DHT22;1389;51.490;7.338;2023-01-08T17:14:26;9.90;87.90
2763;DHT22;1389;51.490;7.338;2023-01-08T17:16:52;9.80;88.00
2763;DHT22;1389;51.490;7.338;2023-01-08T17:19:18;9.70;87.90
2763;DHT22;1389;51.490;7.338;2023-01-08T17:21:44;9.70;87.90
2763;DHT22;1389;51.490;7.338;2023-01-08T17:24:11;9.70;87.90
2763;DHT22;1389;51.490;7.338;2023-01-08T17:26:37;9.70;88.20
2763;DHT22;1389;51.490;7.338;2023-01-08T17:29:03;9.70;88.20
2763;DHT22;1389;51.490;7.338;2023-01-08T17:31:29;9.70;87.90